Time,TemperatureF,DewpointF,PressureIn,WindDirection,WindDirectionDegrees,WindSpeedMPH,WindSpeedGustMPH,Humidity,HourlyPrecipIn,Conditions,Clouds,dailyrainin,SolarRadiationWatts/m^2,SoftwareType,DateUTC
2013-03-06 07:00:00,21.0,18.0,30.15,ESE,117,12.0,-999.0,87,-99.99,,,-99.99,97.199997,,2013-03-06 14:00:00,
2013-03-06 07:53:00,21.0,18.0,30.15,ESE,117,12.0,-999.0,87,-99.99,,,-99.99,97.199997,,2013-03-06 14:53:00,
2013-03-06 08:00:00,25.0,19.0,30.16,ESE,120,13.0,-999.0,80,-99.99,,,-99.99,232.199997,,2013-03-06 15:00:00,
2013-03-06 08:52:00,25.0,19.0,30.16,ESE,120,13.0,-999.0,80,-99.99,,,-99.99,232.199997,,2013-03-06 15:52:00,
2013-03-06 09:00:00,29.0,23.0,30.15,SE,127,15.0,-999.0,78,-99.99,,,-99.99,429.799988,,2013-03-06 16:00:00,
2013-03-06 09:52:00,29.0,23.0,30.15,SE,127,15.0,-999.0,78,-99.99,,,-99.99,429.799988,,2013-03-06 16:52:00,
2013-03-06 10:00:00,34.0,22.0,30.12,SE,130,17.0,-999.0,59,-99.99,,,-99.99,594.400024,,2013-03-06 17:00:00,
2013-03-06 10:53:00,34.0,22.0,30.12,SE,130,17.0,-999.0,59,-99.99,,,-99.99,594.400024,,2013-03-06 17:53:00,
2013-03-06 11:00:00,38.0,22.0,30.10,SE,138,19.0,-999.0,53,-99.99,,,-99.99,707.000000,,2013-03-06 18:00:00,
2013-03-06 11:53:00,38.0,22.0,30.10,SE,138,19.0,-999.0,53,-99.99,,,-99.99,707.000000,,2013-03-06 18:53:00,
2013-03-06 12:00:00,41.0,23.0,30.07,SE,134,18.0,-999.0,48,-99.99,,,-99.99,699.000000,,2013-03-06 19:00:00,
2013-03-06 12:53:00,41.0,23.0,30.07,SE,134,18.0,-999.0,48,-99.99,,,-99.99,699.000000,,2013-03-06 19:53:00,
2013-03-06 13:00:00,45.0,24.0,30.03,SE,136,18.0,-999.0,43,-99.99,,,-99.99,756.000000,,2013-03-06 20:00:00,
2013-03-06 13:53:00,45.0,24.0,30.03,SE,136,18.0,-999.0,43,-99.99,,,-99.99,756.000000,,2013-03-06 20:53:00,
2013-03-06 14:00:00,48.0,24.0,30.00,SE,141,17.0,-999.0,39,-99.99,,,-99.99,634.599976,,2013-03-06 21:00:00,
2013-03-06 14:52:00,48.0,24.0,30.00,SE,141,17.0,-999.0,39,-99.99,,,-99.99,634.599976,,2013-03-06 21:52:00,
2013-03-06 15:00:00,50.0,23.0,29.96,SE,135,18.0,-999.0,34,-99.99,,,-99.99,518.700012,,2013-03-06 22:00:00,
2013-03-06 15:52:00,50.0,23.0,29.96,SE,135,18.0,-999.0,34,-99.99,,,-99.99,518.700012,,2013-03-06 22:52:00,
2013-03-06 16:00:00,50.0,26.0,29.95,SE,127,18.0,-999.0,39,-99.99,,,-99.99,384.600006,,2013-03-06 23:00:00,
2013-03-06 16:52:00,50.0,26.0,29.95,SE,127,18.0,-999.0,39,-99.99,,,-99.99,384.600006,,2013-03-06 23:52:00,
2013-03-06 17:00:00,47.0,27.0,29.94,ESE,117,16.0,-999.0,45,-99.99,,,-99.99,201.100006,,2013-03-07 00:00:00,
2013-03-06 17:52:00,47.0,27.0,29.94,ESE,117,16.0,-999.0,45,-99.99,,,-99.99,201.100006,,2013-03-07 00:52:00,